createdAt,value
2019-05-11T00:00:23.334Z,13.31
2019-05-11T00:01:23.328Z,13.25
2019-05-11T00:02:23.311Z,13.22
2019-05-11T00:03:23.305Z,13.24
2019-05-11T00:04:23.289Z,13.21
2019-05-11T00:05:23.276Z,13.22
2019-05-11T00:06:23.272Z,13.19
2019-05-11T00:07:23.258Z,13.24
2019-05-11T00:08:23.255Z,13.19
2019-05-11T00:09:23.239Z,13.21
2019-05-11T00:10:23.760Z,13.19
2019-05-11T00:11:23.211Z,13.12
2019-05-11T00:12:23.200Z,13.17
2019-05-11T00:13:23.197Z,13.17
2019-05-11T00:14:23.179Z,13.12
2019-05-11T00:15:23.168Z,13.29
2019-05-11T00:16:23.158Z,13.13
2019-05-11T00:17:23.146Z,13.17
2019-05-11T00:18:23.149Z,13.21
2019-05-11T00:19:23.131Z,13.19
2019-05-11T00:20:23.114Z,13.21
2019-05-11T00:21:23.106Z,13.19
2019-05-11T00:22:23.093Z,13.04
2019-05-11T00:23:23.091Z,13.06
2019-05-11T00:24:23.082Z,13.10
2019-05-11T00:25:23.085Z,13.03
2019-05-11T00:26:23.048Z,13.04
2019-05-11T00:27:23.037Z,13.12
2019-05-11T00:28:23.052Z,13.10
2019-05-11T00:29:23.026Z,13.09
2019-05-11T00:30:23.006Z,13.06
2019-05-11T00:31:22.995Z,13.07
2019-05-11T00:32:23.143Z,13.04
2019-05-11T00:33:22.990Z,13.03
2019-05-11T00:34:22.963Z,13.07
2019-05-11T00:35:22.959Z,13.03
2019-05-11T00:36:22.944Z,12.96
2019-05-11T00:37:22.927Z,12.94
2019-05-11T00:38:22.930Z,13.01
2019-05-11T00:39:22.913Z,13.07
2019-05-11T00:40:22.903Z,13.09
2019-05-11T00:41:22.909Z,12.95
2019-05-11T00:42:22.874Z,12.96
2019-05-11T00:43:22.879Z,12.94
2019-05-11T00:44:22.853Z,12.91
2019-05-11T00:45:22.849Z,12.92
2019-05-11T00:46:22.831Z,12.91
2019-05-11T00:47:22.840Z,12.88
2019-05-11T00:48:22.821Z,12.88
2019-05-11T00:49:22.803Z,12.95
2019-05-11T00:50:38.072Z,12.95
2019-05-11T00:51:23.788Z,12.91
2019-05-11T00:52:22.767Z,12.94
2019-05-11T00:53:22.769Z,12.89
2019-05-11T00:54:22.749Z,12.91
2019-05-11T00:55:22.738Z,12.94
2019-05-11T00:56:22.723Z,12.91
2019-05-11T00:57:22.713Z,12.91
2019-05-11T00:58:22.720Z,12.92
2019-05-11T00:59:22.696Z,12.88
2019-05-11T01:00:22.692Z,12.89
2019-05-11T01:01:22.671Z,12.89
2019-05-11T01:02:22.657Z,12.91
2019-05-11T01:03:22.675Z,12.91
2019-05-11T01:04:22.665Z,12.91
2019-05-11T01:05:22.663Z,12.88
2019-05-11T01:06:22.626Z,12.88
2019-05-11T01:07:22.624Z,12.89
2019-05-11T01:08:22.594Z,12.91
2019-05-11T01:09:22.597Z,12.88
2019-05-11T01:10:29.051Z,12.81
2019-05-11T01:11:23.560Z,12.80
2019-05-11T01:12:22.551Z,12.81
2019-05-11T01:13:22.589Z,12.76
2019-05-11T01:14:22.540Z,12.77
2019-05-11T01:15:22.521Z,12.70
2019-05-11T01:16:22.510Z,12.62
2019-05-11T01:17:22.498Z,12.73
2019-05-11T01:18:22.491Z,12.62
2019-05-11T01:19:22.492Z,12.63
2019-05-11T01:20:22.465Z,12.51
2019-05-11T01:21:22.454Z,12.51
2019-05-11T01:22:22.444Z,12.49
2019-05-11T01:23:22.432Z,12.56
2019-05-11T01:24:22.442Z,12.51
2019-05-11T01:25:22.409Z,12.62
2019-05-11T01:26:22.400Z,12.63
2019-05-11T01:27:22.389Z,12.67
2019-05-11T01:28:22.384Z,12.59
2019-05-11T01:29:22.405Z,12.55
2019-05-11T01:30:22.359Z,12.52
2019-05-11T01:31:22.347Z,12.48
2019-05-11T01:32:22.338Z,12.46
2019-05-11T01:33:22.332Z,12.51
2019-05-11T01:34:22.324Z,12.48
2019-05-11T01:35:22.306Z,12.49
2019-05-11T01:36:22.294Z,12.54
2019-05-11T01:37:22.324Z,12.52
2019-05-11T01:38:22.269Z,12.48
2019-05-11T01:39:22.270Z,12.51
2019-05-11T01:40:22.248Z,12.49
2019-05-11T01:41:22.240Z,12.48
2019-05-11T01:42:22.228Z,12.51
2019-05-11T01:43:22.225Z,12.44
2019-05-11T01:44:22.223Z,12.51
2019-05-11T01:45:22.198Z,12.49
2019-05-11T01:46:22.185Z,12.55
2019-05-11T01:47:22.172Z,12.48
2019-05-11T01:48:22.163Z,12.51
2019-05-11T01:49:22.165Z,12.52
2019-05-11T01:50:22.157Z,12.51
2019-05-11T01:51:22.131Z,12.58
2019-05-11T01:52:22.105Z,12.48
2019-05-11T01:53:22.114Z,12.54
2019-05-11T01:54:22.132Z,12.48
2019-05-11T01:55:22.087Z,12.56
2019-05-11T01:56:22.067Z,12.55
2019-05-11T01:57:22.053Z,12.52
2019-05-11T01:58:22.056Z,12.48
2019-05-11T01:59:22.036Z,12.51
2019-05-11T02:00:22.033Z,12.51
2019-05-11T02:01:22.029Z,12.49
2019-05-11T02:02:22.013Z,12.52
2019-05-11T02:03:21.987Z,12.48
2019-05-11T02:04:21.979Z,12.49
2019-05-11T02:05:21.979Z,12.44
2019-05-11T02:06:21.973Z,12.49
2019-05-11T02:07:21.957Z,12.51
2019-05-11T02:08:21.948Z,12.49
2019-05-11T02:09:21.926Z,12.54
2019-05-11T02:10:21.932Z,12.54
2019-05-11T02:11:21.904Z,12.52
2019-05-11T02:12:21.890Z,12.58
2019-05-11T02:13:21.889Z,12.52
2019-05-11T02:14:21.873Z,12.51
2019-05-11T02:15:21.876Z,12.63
2019-05-11T02:16:21.851Z,12.61
2019-05-11T02:17:21.839Z,12.59
2019-05-11T02:18:21.834Z,12.59
2019-05-11T02:19:21.824Z,12.61
2019-05-11T02:20:21.838Z,12.59
2019-05-11T02:21:21.815Z,12.59
2019-05-11T02:22:21.783Z,12.59
2019-05-11T02:23:21.773Z,12.66
2019-05-11T02:24:21.772Z,12.55
2019-05-11T02:25:21.768Z,12.62
2019-05-11T02:26:21.743Z,12.61
2019-05-11T02:27:21.734Z,12.59
2019-05-11T02:28:21.722Z,12.63
2019-05-11T02:29:21.711Z,12.66
2019-05-11T02:30:21.716Z,12.63
2019-05-11T02:31:21.786Z,12.66
2019-05-11T02:32:21.678Z,12.63
2019-05-11T02:33:21.671Z,12.62
2019-05-11T02:34:21.656Z,12.66
2019-05-11T02:35:21.658Z,12.63
2019-05-11T02:36:21.661Z,12.67
2019-05-11T02:37:21.639Z,12.70
2019-05-11T02:38:21.613Z,12.66
2019-05-11T02:39:21.601Z,12.67
2019-05-11T02:40:21.630Z,12.66
2019-05-11T02:41:35.322Z,12.69
2019-05-11T02:42:22.573Z,12.73
2019-05-11T02:43:21.562Z,12.69
2019-05-11T02:44:21.622Z,12.66
2019-05-11T02:45:21.550Z,12.74
2019-05-11T02:46:21.529Z,12.81
2019-05-11T02:47:21.516Z,12.70
2019-05-11T02:48:21.511Z,12.77
2019-05-11T02:49:21.499Z,12.80
2019-05-11T02:50:21.497Z,12.73
2019-05-11T02:51:21.474Z,12.66
2019-05-11T02:52:21.476Z,12.81
2019-05-11T02:53:21.451Z,12.74
2019-05-11T02:54:21.445Z,12.81
2019-05-11T02:55:21.452Z,12.81
2019-05-11T02:56:21.430Z,12.71
2019-05-11T02:57:21.423Z,12.70
2019-05-11T02:58:21.403Z,12.66
2019-05-11T02:59:21.387Z,12.69
2019-05-11T03:00:21.387Z,12.69
2019-05-11T03:01:21.365Z,12.69
2019-05-11T03:02:21.353Z,12.80
2019-05-11T03:03:21.346Z,12.80
2019-05-11T03:04:21.333Z,12.70
2019-05-11T03:05:21.334Z,12.79
2019-05-11T03:06:21.349Z,12.77
2019-05-11T03:07:21.315Z,12.69
2019-05-11T03:08:21.292Z,12.74
2019-05-11T03:09:21.280Z,12.80
2019-05-11T03:10:21.303Z,12.71
2019-05-11T03:11:21.270Z,12.71
2019-05-11T03:12:21.248Z,12.73
2019-05-11T03:13:21.239Z,12.66
2019-05-11T03:14:21.226Z,12.79
2019-05-11T03:15:21.224Z,12.80
2019-05-11T03:16:21.218Z,12.62
2019-05-11T03:17:21.207Z,12.80
2019-05-11T03:18:21.188Z,12.61
2019-05-11T03:19:21.205Z,12.73
2019-05-11T03:20:21.162Z,12.70
2019-05-11T03:21:21.163Z,12.79
2019-05-11T03:22:21.142Z,12.73
2019-05-11T03:23:21.140Z,12.73
2019-05-11T03:24:24.044Z,12.70
2019-05-11T03:25:21.109Z,12.69
2019-05-11T03:26:21.233Z,12.70
2019-05-11T03:27:21.091Z,12.67
2019-05-11T03:28:21.153Z,12.71
2019-05-11T03:29:21.072Z,12.79
2019-05-11T03:30:21.056Z,12.69
2019-05-11T03:31:21.055Z,12.66
2019-05-11T03:32:21.035Z,12.67
2019-05-11T03:33:21.025Z,12.85
2019-05-11T03:34:21.014Z,12.79
2019-05-11T03:35:21.003Z,12.79
2019-05-11T03:36:21.011Z,12.79
2019-05-11T03:37:20.980Z,12.77
2019-05-11T03:38:20.971Z,12.80
2019-05-11T03:39:20.959Z,12.79
2019-05-11T03:40:20.954Z,12.81
2019-05-11T03:41:20.954Z,12.87
2019-05-11T03:42:20.969Z,12.87
2019-05-11T03:43:20.955Z,12.85
2019-05-11T03:44:20.921Z,12.88
2019-05-11T03:45:20.894Z,12.91
2019-05-11T03:46:20.997Z,12.92
2019-05-11T03:47:20.876Z,12.92
2019-05-11T03:48:20.868Z,12.92
2019-05-11T03:49:20.851Z,12.96
2019-05-11T03:50:20.850Z,12.91
2019-05-11T03:51:20.853Z,12.99
2019-05-11T03:52:20.834Z,13.03
2019-05-11T03:53:20.810Z,12.96
2019-05-11T03:54:20.811Z,13.06
2019-05-11T03:55:20.791Z,13.01
2019-05-11T03:56:20.790Z,13.06
2019-05-11T03:57:20.774Z,13.12
2019-05-11T03:58:25.495Z,13.10
2019-05-11T03:59:21.751Z,13.13
2019-05-11T04:00:20.749Z,13.06
2019-05-11T04:01:20.736Z,13.09
2019-05-11T04:02:20.712Z,13.10
2019-05-11T04:03:20.706Z,13.10
2019-05-11T04:04:20.707Z,13.17
2019-05-11T04:05:20.694Z,13.22
2019-05-11T04:06:20.693Z,13.09
2019-05-11T04:07:20.657Z,13.17
2019-05-11T04:08:20.645Z,13.17
2019-05-11T04:09:20.643Z,13.12
2019-05-11T04:10:24.918Z,13.16
2019-05-11T04:11:20.627Z,13.17
2019-05-11T04:12:34.006Z,13.16
2019-05-11T04:13:21.600Z,13.07
2019-05-11T04:14:20.582Z,13.21
2019-05-11T04:15:20.573Z,13.21
2019-05-11T04:16:20.576Z,13.24
2019-05-11T04:17:20.552Z,13.27
2019-05-11T04:18:20.540Z,13.21
2019-05-11T04:19:20.534Z,13.16
2019-05-11T04:20:20.525Z,13.19
2019-05-11T04:21:20.522Z,13.24
2019-05-11T04:22:20.496Z,13.31
2019-05-11T04:23:20.494Z,13.22
2019-05-11T04:24:20.473Z,13.31
2019-05-11T04:25:20.469Z,13.29
2019-05-11T04:26:20.464Z,13.31
2019-05-11T04:27:20.451Z,13.35
2019-05-11T04:28:20.431Z,13.29
2019-05-11T04:29:20.421Z,13.32
2019-05-11T04:30:20.414Z,13.31
2019-05-11T04:31:20.415Z,13.41
2019-05-11T04:32:20.390Z,13.41
2019-05-11T04:33:20.378Z,13.38
2019-05-11T04:34:20.373Z,13.43
2019-05-11T04:35:20.394Z,13.43
2019-05-11T04:36:20.366Z,13.44
2019-05-11T04:37:20.338Z,13.50
2019-05-11T04:38:20.323Z,13.51
2019-05-11T04:39:20.330Z,13.51
2019-05-11T04:40:20.304Z,13.61
2019-05-11T04:41:20.296Z,13.55
2019-05-11T04:42:20.297Z,13.61
2019-05-11T04:43:20.269Z,13.61
2019-05-11T04:44:20.259Z,13.63
2019-05-11T04:45:20.256Z,13.59
2019-05-11T04:46:20.236Z,13.63
2019-05-11T04:47:20.243Z,13.62
2019-05-11T04:48:20.216Z,13.63
2019-05-11T04:49:20.203Z,13.65
2019-05-11T04:50:20.202Z,13.63
2019-05-11T04:51:20.183Z,13.65
2019-05-11T04:52:20.195Z,13.71
2019-05-11T04:53:20.162Z,13.63
2019-05-11T04:54:20.154Z,13.63
2019-05-11T04:55:20.139Z,13.66
2019-05-11T04:56:20.131Z,13.75
2019-05-11T04:57:20.131Z,13.71
2019-05-11T04:58:20.118Z,13.71
2019-05-11T04:59:20.107Z,13.65
2019-05-11T05:00:20.090Z,13.68
2019-05-11T05:01:20.075Z,13.68
2019-05-11T05:02:20.080Z,13.68
2019-05-11T05:03:20.051Z,13.75
2019-05-11T05:04:20.041Z,13.73
2019-05-11T05:05:20.033Z,13.73
2019-05-11T05:06:22.529Z,13.79
2019-05-11T05:07:20.026Z,13.76
2019-05-11T05:08:21.048Z,13.79
2019-05-11T05:09:21.091Z,13.81
2019-05-11T05:10:22.247Z,13.80
2019-05-11T05:11:19.967Z,13.80
2019-05-11T05:12:20.013Z,13.86
2019-05-11T05:13:23.432Z,13.81
2019-05-11T05:14:20.937Z,13.91
2019-05-11T05:15:19.929Z,13.94
2019-05-11T05:16:19.912Z,13.88
2019-05-11T05:17:19.915Z,14.04
2019-05-11T05:18:19.891Z,13.98
2019-05-11T05:19:19.884Z,14.11
2019-05-11T05:20:19.869Z,14.13
2019-05-11T05:21:19.858Z,14.08
2019-05-11T05:22:19.863Z,14.05
2019-05-11T05:23:19.839Z,14.09
2019-05-11T05:24:19.826Z,14.19
2019-05-11T05:25:19.815Z,14.24
2019-05-11T05:26:19.821Z,14.26
2019-05-11T05:27:19.837Z,14.34
2019-05-11T05:28:19.782Z,14.31
2019-05-11T05:29:19.781Z,14.29
2019-05-11T05:30:19.763Z,14.31
2019-05-11T05:31:19.774Z,14.27
2019-05-11T05:32:19.752Z,14.38
2019-05-11T05:33:19.734Z,14.34
2019-05-11T05:34:19.722Z,14.35
2019-05-11T05:35:19.710Z,14.31
2019-05-11T05:36:19.699Z,14.26
2019-05-11T05:37:19.697Z,14.27
2019-05-11T05:38:19.677Z,14.31
2019-05-11T05:39:19.664Z,14.35
2019-05-11T05:40:19.654Z,14.31
2019-05-11T05:41:19.645Z,14.35
2019-05-11T05:42:19.643Z,14.30
2019-05-11T05:43:27.421Z,14.35
2019-05-11T05:44:20.614Z,14.35
2019-05-11T05:45:19.605Z,14.36
2019-05-11T05:46:19.593Z,14.27
2019-05-11T05:47:19.592Z,14.29
2019-05-11T05:48:19.578Z,14.30
2019-05-11T05:49:19.557Z,14.35
2019-05-11T05:50:19.546Z,14.31
2019-05-11T05:51:19.539Z,14.29
2019-05-11T05:52:19.541Z,14.27
2019-05-11T05:53:19.548Z,14.27
2019-05-11T05:54:19.507Z,14.27
2019-05-11T05:55:19.493Z,14.23
2019-05-11T05:56:19.481Z,14.19
2019-05-11T05:57:19.499Z,14.30
2019-05-11T05:58:19.465Z,14.24
2019-05-11T05:59:19.450Z,14.20
2019-05-11T06:00:19.442Z,14.23
2019-05-11T06:01:19.426Z,14.13
2019-05-11T06:02:19.418Z,14.20
2019-05-11T06:03:19.410Z,14.16
2019-05-11T06:04:19.395Z,14.23
2019-05-11T06:05:19.382Z,14.24
2019-05-11T06:06:19.375Z,14.24
2019-05-11T06:07:19.373Z,14.31
2019-05-11T06:08:19.358Z,14.24
2019-05-11T06:09:19.340Z,14.24
2019-05-11T06:10:19.330Z,14.26
2019-05-11T06:11:19.321Z,14.12
2019-05-11T06:12:19.308Z,14.21
2019-05-11T06:13:19.308Z,14.20
2019-05-11T06:14:19.287Z,14.24
2019-05-11T06:15:19.283Z,14.27
2019-05-11T06:16:19.272Z,14.23
2019-05-11T06:17:19.260Z,14.16
2019-05-11T06:18:19.276Z,14.13
2019-05-11T06:19:19.233Z,14.13
2019-05-11T06:20:19.223Z,14.21
2019-05-11T06:21:19.211Z,14.16
2019-05-11T06:22:19.209Z,14.16
2019-05-11T06:23:19.202Z,14.08
2019-05-11T06:24:19.208Z,14.16
2019-05-11T06:25:19.176Z,14.19
2019-05-11T06:26:19.160Z,14.19
2019-05-11T06:27:19.197Z,14.24
2019-05-11T06:28:19.151Z,14.27
2019-05-11T06:29:21.689Z,14.30
2019-05-11T06:30:19.114Z,14.29
2019-05-11T06:31:19.125Z,14.30
2019-05-11T06:32:19.094Z,14.27
2019-05-11T06:33:19.095Z,14.29
2019-05-11T06:34:19.073Z,14.24
2019-05-11T06:35:22.415Z,14.45
2019-05-11T06:36:19.052Z,14.52
2019-05-11T06:37:19.038Z,14.59
2019-05-11T06:38:19.042Z,14.59
2019-05-11T06:39:19.037Z,14.67
2019-05-11T06:40:19.009Z,14.67
2019-05-11T06:41:18.997Z,14.79
2019-05-11T06:42:18.984Z,14.98
2019-05-11T06:43:18.986Z,15.07
2019-05-11T06:44:18.963Z,15.07
2019-05-11T06:45:18.951Z,15.07
2019-05-11T06:46:18.943Z,15.15
2019-05-11T06:47:18.939Z,15.05
2019-05-11T06:48:18.931Z,14.93
2019-05-11T06:49:18.909Z,14.93
2019-05-11T06:50:18.899Z,14.93
2019-05-11T06:51:18.891Z,14.85
2019-05-11T06:52:18.876Z,14.85
2019-05-11T06:53:18.891Z,14.83
2019-05-11T06:54:18.855Z,14.78
2019-05-11T06:55:18.844Z,14.85
2019-05-11T06:56:18.835Z,14.83
2019-05-11T06:57:18.826Z,14.83
2019-05-11T06:58:18.826Z,14.86
2019-05-11T06:59:18.814Z,14.94
2019-05-11T07:00:18.796Z,15.05
2019-05-11T07:01:18.778Z,15.09
2019-05-11T07:02:18.772Z,15.12
2019-05-11T07:03:18.777Z,15.15
2019-05-11T07:04:18.751Z,15.09
2019-05-11T07:05:18.735Z,15.11
2019-05-11T07:06:18.725Z,15.11
2019-05-11T07:07:18.714Z,15.07
2019-05-11T07:08:18.715Z,15.16
2019-05-11T07:09:18.705Z,15.27
2019-05-11T07:10:18.682Z,15.27
2019-05-11T07:11:18.673Z,15.35
2019-05-11T07:12:18.801Z,15.51
2019-05-11T07:13:18.938Z,15.44
2019-05-11T07:14:20.947Z,15.55
2019-05-11T07:15:18.632Z,15.52
2019-05-11T07:16:18.617Z,15.58
2019-05-11T07:17:18.611Z,15.55
2019-05-11T07:18:18.610Z,15.59
2019-05-11T07:19:18.598Z,15.52
2019-05-11T07:20:18.574Z,15.56
2019-05-11T07:21:18.568Z,15.56
2019-05-11T07:22:18.551Z,15.53
2019-05-11T07:23:18.541Z,15.51
2019-05-11T07:24:18.543Z,15.53
2019-05-11T07:25:18.521Z,15.59
2019-05-11T07:26:18.508Z,15.58
2019-05-11T07:27:18.500Z,15.62
2019-05-11T07:28:18.488Z,15.64
2019-05-11T07:29:18.492Z,15.59
2019-05-11T07:30:18.466Z,15.60
2019-05-11T07:31:18.458Z,15.64
2019-05-11T07:32:25.121Z,15.62
2019-05-11T07:33:19.431Z,15.59
2019-05-11T07:34:18.603Z,15.67
2019-05-11T07:35:18.908Z,15.73
2019-05-11T07:36:18.407Z,15.91
2019-05-11T07:37:18.634Z,15.96
2019-05-11T07:38:18.577Z,15.92
2019-05-11T07:39:18.730Z,16.14
2019-05-11T07:40:18.932Z,16.22
2019-05-11T07:41:18.347Z,16.13
2019-05-11T07:42:18.337Z,16.17
2019-05-11T07:43:18.877Z,16.17
2019-05-11T07:44:19.141Z,16.23
2019-05-11T07:45:19.315Z,16.29
2019-05-11T07:46:18.408Z,16.29
2019-05-11T07:47:18.796Z,16.45
2019-05-11T07:48:18.766Z,16.59
2019-05-11T07:49:18.271Z,16.75
2019-05-11T07:50:18.389Z,16.88
2019-05-11T07:51:18.457Z,16.95
2019-05-11T07:52:18.342Z,17.10
2019-05-11T07:53:18.718Z,17.22
2019-05-11T07:54:18.813Z,17.20
2019-05-11T07:55:18.985Z,17.18
2019-05-11T07:56:18.933Z,17.12
2019-05-11T07:57:18.715Z,17.12
2019-05-11T07:58:20.349Z,17.17
2019-05-11T07:59:18.483Z,17.25
2019-05-11T08:00:18.747Z,17.25
2019-05-11T08:01:18.882Z,17.32
2019-05-11T08:02:18.125Z,17.39
2019-05-11T08:03:18.245Z,17.38
2019-05-11T08:04:18.456Z,17.38
2019-05-11T08:05:18.220Z,17.46
2019-05-11T08:06:18.531Z,17.47
2019-05-11T08:07:18.269Z,17.54
2019-05-11T08:08:18.248Z,17.53
2019-05-11T08:09:18.790Z,17.47
2019-05-11T08:10:18.671Z,17.42
2019-05-11T08:11:18.337Z,17.54
2019-05-11T08:12:19.227Z,17.36
2019-05-11T08:13:18.006Z,17.43
2019-05-11T08:14:18.380Z,17.45
2019-05-11T08:15:18.488Z,17.43
2019-05-11T08:16:18.669Z,17.42
2019-05-11T08:17:18.639Z,17.43
2019-05-11T08:18:18.933Z,17.45
2019-05-11T08:19:18.690Z,17.49
2019-05-11T08:20:18.721Z,17.60
2019-05-11T08:21:18.079Z,17.60
2019-05-11T08:22:22.166Z,17.55
2019-05-11T08:23:18.893Z,17.66
2019-05-11T08:24:18.142Z,17.65
2019-05-11T08:25:18.356Z,17.62
2019-05-11T08:26:19.018Z,17.62
2019-05-11T08:27:18.674Z,17.70
2019-05-11T08:28:18.410Z,17.53
2019-05-11T08:29:18.527Z,17.54
2019-05-11T08:30:18.852Z,17.51
2019-05-11T08:31:18.686Z,17.47
2019-05-11T08:32:18.365Z,17.47
2019-05-11T08:33:18.287Z,17.38
2019-05-11T08:34:18.079Z,17.51
2019-05-11T08:35:17.985Z,17.45
2019-05-11T08:36:18.511Z,17.45
2019-05-11T08:37:18.916Z,17.54
2019-05-11T08:38:18.150Z,17.68
2019-05-11T08:39:18.337Z,17.73
2019-05-11T08:40:18.436Z,17.79
2019-05-11T08:41:18.500Z,17.87
2019-05-11T08:42:18.032Z,17.95
2019-05-11T08:43:18.071Z,17.98
2019-05-11T08:44:18.275Z,18.21
2019-05-11T08:45:24.096Z,18.09
2019-05-11T08:46:18.785Z,18.09
2019-05-11T08:47:17.909Z,18.05
2019-05-11T08:48:18.691Z,18.07
2019-05-11T08:49:19.041Z,18.20
2019-05-11T08:50:18.755Z,18.25
2019-05-11T08:51:18.700Z,18.28
2019-05-11T08:52:18.676Z,18.20
2019-05-11T08:53:17.950Z,18.14
2019-05-11T08:54:18.314Z,17.98
2019-05-11T08:55:18.996Z,17.87
2019-05-11T08:56:18.940Z,17.84
2019-05-11T08:57:18.065Z,17.84
2019-05-11T08:58:19.460Z,17.68
2019-05-11T08:59:18.681Z,17.74
2019-05-11T09:00:18.034Z,17.76
2019-05-11T09:01:18.597Z,17.76
2019-05-11T09:02:18.584Z,17.84
2019-05-11T09:03:17.961Z,17.83
2019-05-11T09:04:18.265Z,17.63
2019-05-11T09:05:18.744Z,17.58
2019-05-11T09:06:18.037Z,17.60
2019-05-11T09:07:18.418Z,17.55
2019-05-11T09:08:18.812Z,17.47
2019-05-11T09:09:18.159Z,17.45
2019-05-11T09:10:18.624Z,17.46
2019-05-11T09:11:19.065Z,17.63
2019-05-11T09:12:18.333Z,17.71
2019-05-11T09:13:18.511Z,17.77
2019-05-11T09:14:18.821Z,17.83
2019-05-11T09:15:32.646Z,17.94
2019-05-11T09:16:19.171Z,17.87
2019-05-11T09:17:18.246Z,17.83
2019-05-11T09:18:18.757Z,17.77
2019-05-11T09:19:17.882Z,17.57
2019-05-11T09:20:18.000Z,17.74
2019-05-11T09:21:19.119Z,17.62
2019-05-11T09:22:18.635Z,17.54
2019-05-11T09:23:32.470Z,17.42
2019-05-11T09:24:18.955Z,17.18
2019-05-11T09:25:18.369Z,17.12
2019-05-11T09:26:18.135Z,17.03
2019-05-11T09:27:18.409Z,17.06
2019-05-11T09:28:17.996Z,17.06
2019-05-11T09:29:18.009Z,17.12
2019-05-11T09:30:18.476Z,17.10
2019-05-11T09:31:18.865Z,17.00
2019-05-11T09:32:17.946Z,17.05
2019-05-11T09:33:20.454Z,17.10
2019-05-11T09:34:18.081Z,17.02
2019-05-11T09:35:18.855Z,17.06
2019-05-11T09:36:18.090Z,17.10
2019-05-11T09:37:18.386Z,17.14
2019-05-11T09:38:18.529Z,17.09
2019-05-11T09:39:17.759Z,17.05
2019-05-11T09:40:18.220Z,16.98
2019-05-11T09:41:18.023Z,17.00
2019-05-11T09:42:17.981Z,17.03
2019-05-11T09:43:17.878Z,17.10
2019-05-11T09:44:18.244Z,17.12
2019-05-11T09:45:18.669Z,17.18
2019-05-11T09:46:18.763Z,17.24
2019-05-11T09:47:18.925Z,17.24
2019-05-11T09:48:17.952Z,17.32
2019-05-11T09:49:18.507Z,17.33
2019-05-11T09:50:17.916Z,17.22
2019-05-11T09:51:18.454Z,17.42
2019-05-11T09:52:18.405Z,17.42
2019-05-11T09:53:17.725Z,17.53
2019-05-11T09:54:18.272Z,17.70
2019-05-11T09:55:19.012Z,17.70
2019-05-11T09:56:18.345Z,17.76
2019-05-11T09:57:18.496Z,17.89
2019-05-11T09:58:19.783Z,17.96
2019-05-11T09:59:17.873Z,18.09
2019-05-11T10:00:17.888Z,18.16
2019-05-11T10:01:18.253Z,18.25
2019-05-11T10:02:20.705Z,18.31
2019-05-11T10:03:18.773Z,18.35
2019-05-11T10:04:18.115Z,18.54
2019-05-11T10:05:18.845Z,18.64
2019-05-11T10:06:19.072Z,18.78
2019-05-11T10:07:18.079Z,18.82
2019-05-11T10:08:18.302Z,18.79
2019-05-11T10:09:18.666Z,18.93
2019-05-11T10:10:18.674Z,19.05
2019-05-11T10:11:18.853Z,19.30
2019-05-11T10:12:18.096Z,19.38
2019-05-11T10:13:18.557Z,19.62
2019-05-11T10:14:18.738Z,19.82
2019-05-11T10:15:18.746Z,19.78
2019-05-11T10:16:17.843Z,19.79
2019-05-11T10:17:18.227Z,19.67
2019-05-11T10:18:18.603Z,19.62
2019-05-11T10:19:17.930Z,19.49
2019-05-11T10:20:18.192Z,19.42
2019-05-11T10:21:18.840Z,19.45
2019-05-11T10:22:18.600Z,19.42
2019-05-11T10:23:18.606Z,19.32
2019-05-11T10:24:17.742Z,19.20
2019-05-11T10:25:18.123Z,19.15
2019-05-11T10:26:18.635Z,19.24
2019-05-11T10:27:18.738Z,19.20
2019-05-11T10:28:17.870Z,19.20
2019-05-11T10:29:18.259Z,19.28
2019-05-11T10:30:18.639Z,19.24
2019-05-11T10:31:18.147Z,19.31
2019-05-11T10:32:18.270Z,19.30
2019-05-11T10:33:18.680Z,19.45
2019-05-11T10:34:18.013Z,19.45
2019-05-11T10:35:18.394Z,19.68
2019-05-11T10:36:18.746Z,19.79
2019-05-11T10:37:17.648Z,19.78
2019-05-11T10:38:18.006Z,19.68
2019-05-11T10:39:18.645Z,19.70
2019-05-11T10:40:18.659Z,19.64
2019-05-11T10:41:18.068Z,19.75
2019-05-11T10:42:18.034Z,19.87
2019-05-11T10:43:18.392Z,19.95
2019-05-11T10:44:18.601Z,20.01
2019-05-11T10:45:18.029Z,20.10
2019-05-11T10:46:22.455Z,20.20
2019-05-11T10:47:18.444Z,20.40
2019-05-11T10:48:17.757Z,20.38
2019-05-11T10:49:18.316Z,20.40
2019-05-11T10:50:18.564Z,20.23
2019-05-11T10:51:18.468Z,20.31
2019-05-11T10:52:18.040Z,20.08
2019-05-11T10:53:18.327Z,19.95
2019-05-11T10:54:18.490Z,19.72
2019-05-11T10:55:19.002Z,19.82
2019-05-11T10:56:17.861Z,19.76
2019-05-11T10:57:18.721Z,19.80
2019-05-11T10:58:18.359Z,19.86
2019-05-11T10:59:18.546Z,19.89
2019-05-11T11:00:17.817Z,19.90
2019-05-11T11:01:18.202Z,20.00
2019-05-11T11:02:18.352Z,20.04
2019-05-11T11:03:17.893Z,20.04
2019-05-11T11:04:18.282Z,20.16
2019-05-11T11:05:18.542Z,20.31
2019-05-11T11:06:18.597Z,20.19
2019-05-11T11:07:17.274Z,20.00
2019-05-11T11:08:18.379Z,19.87
2019-05-11T11:09:17.787Z,19.82
2019-05-11T11:10:18.170Z,19.72
2019-05-11T11:11:18.274Z,19.55
2019-05-11T11:12:16.078Z,19.45
2019-05-11T11:13:16.056Z,19.42
2019-05-11T11:14:18.060Z,19.45
2019-05-11T11:15:18.187Z,19.58
2019-05-11T11:16:34.331Z,19.62
2019-05-11T11:17:19.185Z,19.58
2019-05-11T11:18:16.003Z,19.71
2019-05-11T11:19:18.183Z,19.64
2019-05-11T11:20:18.478Z,19.72
2019-05-11T11:21:20.110Z,19.68
2019-05-11T11:22:35.736Z,19.61
2019-05-11T11:23:17.713Z,19.71
2019-05-11T11:24:18.026Z,19.72
2019-05-11T11:25:17.948Z,19.70
2019-05-11T11:26:18.210Z,19.67
2019-05-11T11:27:15.915Z,19.65
2019-05-11T11:28:17.550Z,19.62
2019-05-11T11:29:17.879Z,19.79
2019-05-11T11:30:17.977Z,19.78
2019-05-11T11:31:18.381Z,20.01
2019-05-11T11:32:15.863Z,20.15
2019-05-11T11:33:17.952Z,20.38
2019-05-11T11:34:15.828Z,20.44
2019-05-11T11:35:15.818Z,20.40
2019-05-11T11:36:17.954Z,20.53
2019-05-11T11:37:17.575Z,20.56
2019-05-11T11:38:17.868Z,20.61
2019-05-11T11:39:15.776Z,20.61
2019-05-11T11:40:17.738Z,20.81
2019-05-11T11:41:17.865Z,20.94
2019-05-11T11:42:17.763Z,21.03
2019-05-11T11:43:17.887Z,20.93
2019-05-11T11:44:18.313Z,21.06
2019-05-11T11:45:18.108Z,21.30
2019-05-11T11:46:15.701Z,21.31
2019-05-11T11:47:20.947Z,21.43
2019-05-11T11:48:18.708Z,21.56
2019-05-11T11:49:15.669Z,21.45
2019-05-11T11:50:17.645Z,21.31
2019-05-11T11:51:15.661Z,21.11
2019-05-11T11:52:15.637Z,20.90
2019-05-11T11:53:15.634Z,20.83
2019-05-11T11:54:17.955Z,20.60
2019-05-11T11:55:15.606Z,20.60
2019-05-11T11:56:15.595Z,20.41
2019-05-11T11:57:15.584Z,20.38
2019-05-11T11:58:20.117Z,20.13
2019-05-11T11:59:17.850Z,20.05
2019-05-11T12:00:18.118Z,20.05
2019-05-11T12:01:30.099Z,20.16
2019-05-11T12:02:15.532Z,20.22
2019-05-11T12:03:15.526Z,20.40
2019-05-11T12:04:15.510Z,20.51
2019-05-11T12:05:17.552Z,20.41
2019-05-11T12:06:17.953Z,20.35
2019-05-11T12:07:17.769Z,20.37
2019-05-11T12:08:15.470Z,20.13
2019-05-11T12:09:18.022Z,20.13
2019-05-11T12:10:15.447Z,19.95
2019-05-11T12:11:15.437Z,19.80
2019-05-11T12:12:15.425Z,19.80
2019-05-11T12:13:15.416Z,19.82
2019-05-11T12:14:15.411Z,19.83
2019-05-11T12:15:17.621Z,19.90
2019-05-11T12:16:17.765Z,19.90
2019-05-11T12:17:18.036Z,19.97
2019-05-11T12:18:15.363Z,19.90
2019-05-11T12:19:15.350Z,19.79
2019-05-11T12:20:15.339Z,19.87
2019-05-11T12:21:15.330Z,20.22
2019-05-11T12:22:15.316Z,20.30
2019-05-11T12:23:15.310Z,20.41
2019-05-11T12:24:15.297Z,20.51
2019-05-11T12:25:15.285Z,20.69
2019-05-11T12:26:17.544Z,20.79
2019-05-11T12:27:15.265Z,20.85
2019-05-11T12:28:15.258Z,21.18
2019-05-11T12:29:15.243Z,22.05
2019-05-11T12:30:15.231Z,23.89
2019-05-11T12:31:15.220Z,24.31
2019-05-11T12:32:15.211Z,23.94
2019-05-11T12:33:15.209Z,23.92
2019-05-11T12:34:15.187Z,23.38
2019-05-11T12:35:15.179Z,22.96
2019-05-11T12:36:15.190Z,22.57
2019-05-11T12:37:15.156Z,22.79
2019-05-11T12:38:15.157Z,23.74
2019-05-11T12:39:15.134Z,23.87
2019-05-11T12:40:15.124Z,23.54
2019-05-11T12:41:15.114Z,24.04
2019-05-11T12:42:15.105Z,25.90
2019-05-11T12:43:15.185Z,28.08
2019-05-11T12:44:15.084Z,30.25
2019-05-11T12:45:15.071Z,32.29
2019-05-11T12:46:15.061Z,34.34
2019-05-11T12:47:22.172Z,35.85
2019-05-11T12:48:18.050Z,36.90
2019-05-11T12:49:15.028Z,35.93
2019-05-11T12:50:15.021Z,34.95
2019-05-11T12:51:15.009Z,32.66
2019-05-11T12:52:14.997Z,30.42